sensor_id;sensor_type;location;lat;lon;timestamp;pressure;altitude;pressure_sealevel;temperature;humidity
77706;BME280;66874;45.274;5.880;2024-01-16T00:00:31;98417.31;;;4.04;89.57
77706;BME280;66874;45.274;5.880;2024-01-16T00:02:56;98419.91;;;4.04;89.74
77706;BME280;66874;45.274;5.880;2024-01-16T00:05:22;98428.53;;;4.05;89.68
77706;BME280;66874;45.274;5.880;2024-01-16T00:07:47;98432.84;;;4.04;89.59
77706;BME280;66874;45.274;5.880;2024-01-16T00:10:13;98437.16;;;4.05;89.59
77706;BME280;66874;45.274;5.880;2024-01-16T00:12:38;98432.84;;;4.04;89.80
77706;BME280;66874;45.274;5.880;2024-01-16T00:15:06;98439.72;;;4.05;89.54
77706;BME280;66874;45.274;5.880;2024-01-16T00:17:31;98436.28;;;4.05;89.75
77706;BME280;66874;45.274;5.880;2024-01-16T00:19:57;98434.56;;;4.05;89.79
77706;BME280;66874;45.274;5.880;2024-01-16T00:22:26;98436.28;;;4.05;89.64
77706;BME280;66874;45.274;5.880;2024-01-16T00:24:51;98437.16;;;4.05;89.54
77706;BME280;66874;45.274;5.880;2024-01-16T00:27:17;98432.81;;;4.06;89.69
77706;BME280;66874;45.274;5.880;2024-01-16T00:29:42;98427.66;;;4.06;89.79
77706;BME280;66874;45.274;5.880;2024-01-16T00:32:07;98428.53;;;4.05;89.71
77706;BME280;66874;45.274;5.880;2024-01-16T00:34:33;98428.50;;;4.06;89.71
77706;BME280;66874;45.274;5.880;2024-01-16T00:36:59;98425.94;;;4.05;89.53
77706;BME280;66874;45.274;5.880;2024-01-16T00:39:24;98414.72;;;4.04;89.66
77706;BME280;66874;45.274;5.880;2024-01-16T00:41:49;98418.16;;;4.03;89.73
77706;BME280;66874;45.274;5.880;2024-01-16T00:44:15;98412.13;;;4.03;89.81
77706;BME280;66874;45.274;5.880;2024-01-16T00:46:40;98404.34;;;4.03;89.66
77706;BME280;66874;45.274;5.880;2024-01-16T00:49:06;98406.09;;;4.04;89.72
77706;BME280;66874;45.274;5.880;2024-01-16T00:51:32;98400.06;;;4.02;89.69
77706;BME280;66874;45.274;5.880;2024-01-16T00:53:58;98406.09;;;4.02;89.66
77706;BME280;66874;45.274;5.880;2024-01-16T00:56:23;98410.41;;;4.03;89.68
77706;BME280;66874;45.274;5.880;2024-01-16T00:58:49;98414.72;;;4.04;89.69
77706;BME280;66874;45.274;5.880;2024-01-16T01:01:14;98419.03;;;4.04;89.66
77706;BME280;66874;45.274;5.880;2024-01-16T01:03:39;98419.03;;;4.04;89.62
77706;BME280;66874;45.274;5.880;2024-01-16T01:06:05;98414.72;;;4.03;89.72
77706;BME280;66874;45.274;5.880;2024-01-16T01:08:30;98422.50;;;3.95;89.73
77706;BME280;66874;45.274;5.880;2024-01-16T01:10:55;98421.69;;;3.88;89.99
77706;BME280;66874;45.274;5.880;2024-01-16T01:13:21;98431.19;;;3.85;89.89
77706;BME280;66874;45.274;5.880;2024-01-16T01:15:47;98436.34;;;3.80;89.97
77706;BME280;66874;45.274;5.880;2024-01-16T01:18:12;98439.81;;;3.78;90.04
77706;BME280;66874;45.274;5.880;2024-01-16T01:20:38;98433.78;;;3.77;89.97
77706;BME280;66874;45.274;5.880;2024-01-16T01:23:04;98437.22;;;3.76;89.83
77706;BME280;66874;45.274;5.880;2024-01-16T01:25:29;98445.84;;;3.74;90.11
77706;BME280;66874;45.274;5.880;2024-01-16T01:27:54;98447.59;;;3.73;89.85
77706;BME280;66874;45.274;5.880;2024-01-16T01:30:20;98449.31;;;3.71;89.80
77706;BME280;66874;45.274;5.880;2024-01-16T01:32:45;98447.59;;;3.67;89.75
77706;BME280;66874;45.274;5.880;2024-01-16T01:35:10;98443.28;;;3.60;89.95
77706;BME280;66874;45.274;5.880;2024-01-16T01:37:39;98445.00;;;3.56;89.87
77706;BME280;66874;45.274;5.880;2024-01-16T01:40:05;98441.56;;;3.53;89.78
77706;BME280;66874;45.274;5.880;2024-01-16T01:42:31;98445.03;;;3.47;89.81
77706;BME280;66874;45.274;5.880;2024-01-16T01:44:56;98441.56;;;3.40;89.65
77706;BME280;66874;45.274;5.880;2024-01-16T01:47:22;98445.88;;;3.34;89.59
77706;BME280;66874;45.274;5.880;2024-01-16T01:49:48;98450.19;;;3.30;89.81
77706;BME280;66874;45.274;5.880;2024-01-16T01:52:13;98455.34;;;3.26;89.69
77706;BME280;66874;45.274;5.880;2024-01-16T01:54:40;98453.66;;;3.28;89.87
77706;BME280;66874;45.274;5.880;2024-01-16T01:57:07;98453.66;;;3.28;89.89
77706;BME280;66874;45.274;5.880;2024-01-16T01:59:33;98449.31;;;3.30;89.61
77706;BME280;66874;45.274;5.880;2024-01-16T02:01:59;98451.06;;;3.31;89.56
77706;BME280;66874;45.274;5.880;2024-01-16T02:04:26;98447.59;;;3.33;89.55
77706;BME280;66874;45.274;5.880;2024-01-16T02:06:53;98453.66;;;3.35;89.66
77706;BME280;66874;45.274;5.880;2024-01-16T02:09:19;98460.53;;;3.36;89.57
77706;BME280;66874;45.274;5.880;2024-01-16T02:11:44;98466.59;;;3.31;89.57
77706;BME280;66874;45.274;5.880;2024-01-16T02:14:09;98476.91;;;3.17;89.50
77706;BME280;66874;45.274;5.880;2024-01-16T02:16:39;98464.81;;;3.07;89.54
77706;BME280;66874;45.274;5.880;2024-01-16T02:19:06;98468.28;;;3.01;89.58
77706;BME280;66874;45.274;5.880;2024-01-16T02:21:53;98476.00;;;2.98;89.52
77706;BME280;66874;45.274;5.880;2024-01-16T02:24:20;98491.53;;;2.97;89.49
77706;BME280;66874;45.274;5.880;2024-01-16T02:26:45;98493.25;;;2.93;89.24
77706;BME280;66874;45.274;5.880;2024-01-16T02:29:11;98497.50;;;2.88;89.30
77706;BME280;66874;45.274;5.880;2024-01-16T02:31:36;98495.78;;;2.82;89.21
77706;BME280;66874;45.274;5.880;2024-01-16T02:34:02;98496.66;;;2.81;89.12
77706;BME280;66874;45.274;5.880;2024-01-16T02:36:29;98487.19;;;2.82;89.32
77706;BME280;66874;45.274;5.880;2024-01-16T02:38:55;98481.16;;;2.81;89.25
77706;BME280;66874;45.274;5.880;2024-01-16T02:41:21;98479.44;;;2.83;89.16
77706;BME280;66874;45.274;5.880;2024-01-16T02:43:46;98482.88;;;2.85;89.25
77706;BME280;66874;45.274;5.880;2024-01-16T02:46:12;98481.16;;;2.92;89.08
77706;BME280;66874;45.274;5.880;2024-01-16T02:48:38;98463.09;;;2.95;89.23
77706;BME280;66874;45.274;5.880;2024-01-16T02:51:03;98461.34;;;2.96;89.23
77706;BME280;66874;45.274;5.880;2024-01-16T02:53:30;98461.38;;;2.97;89.22
77706;BME280;66874;45.274;5.880;2024-01-16T02:55:56;98457.94;;;2.98;88.95
77706;BME280;66874;45.274;5.880;2024-01-16T02:58:23;98448.47;;;3.02;89.26
77706;BME280;66874;45.274;5.880;2024-01-16T03:00:49;98447.63;;;3.04;89.06
77706;BME280;66874;45.274;5.880;2024-01-16T03:03:14;98445.03;;;3.06;88.92
77706;BME280;66874;45.274;5.880;2024-01-16T03:05:40;98457.94;;;3.07;89.02
77706;BME280;66874;45.274;5.880;2024-01-16T03:08:06;98460.53;;;3.09;89.09
77706;BME280;66874;45.274;5.880;2024-01-16T03:10:32;98459.69;;;3.08;89.03
77706;BME280;66874;45.274;5.880;2024-01-16T03:12:57;98454.50;;;3.10;88.91
77706;BME280;66874;45.274;5.880;2024-01-16T03:15:22;98451.94;;;3.11;89.26
77706;BME280;66874;45.274;5.880;2024-01-16T03:17:48;98453.63;;;3.11;89.14
77706;BME280;66874;45.274;5.880;2024-01-16T03:20:15;98453.63;;;3.11;89.13
77706;BME280;66874;45.274;5.880;2024-01-16T03:22:40;98457.94;;;3.09;89.07
77706;BME280;66874;45.274;5.880;2024-01-16T03:25:08;98463.97;;;3.06;89.27
77706;BME280;66874;45.274;5.880;2024-01-16T03:27:33;98464.81;;;3.02;89.25
77706;BME280;66874;45.274;5.880;2024-01-16T03:29:59;98463.09;;;2.98;89.10
77706;BME280;66874;45.274;5.880;2024-01-16T03:32:24;98464.81;;;2.93;89.07
77706;BME280;66874;45.274;5.880;2024-01-16T03:34:50;98469.97;;;2.85;89.08
77706;BME280;66874;45.274;5.880;2024-01-16T03:37:15;98464.78;;;2.78;89.20
77706;BME280;66874;45.274;5.880;2024-01-16T03:39:41;98465.59;;;2.69;89.15
77706;BME280;66874;45.274;5.880;2024-01-16T03:42:07;98466.47;;;2.62;89.18
77706;BME280;66874;45.274;5.880;2024-01-16T03:44:32;98470.75;;;2.58;89.25
77706;BME280;66874;45.274;5.880;2024-01-16T03:46:57;98460.41;;;2.55;88.96
77706;BME280;66874;45.274;5.880;2024-01-16T03:49:23;98463.88;;;2.54;89.32
77706;BME280;66874;45.274;5.880;2024-01-16T03:51:49;98467.28;;;2.53;89.26
77706;BME280;66874;45.274;5.880;2024-01-16T03:54:14;98471.63;;;2.54;89.45
77706;BME280;66874;45.274;5.880;2024-01-16T03:56:40;98466.44;;;2.54;89.50
77706;BME280;66874;45.274;5.880;2024-01-16T03:59:05;98458.69;;;2.57;89.28
77706;BME280;66874;45.274;5.880;2024-01-16T04:01:34;98457.00;;;2.59;89.32
77706;BME280;66874;45.274;5.880;2024-01-16T04:04:02;98452.69;;;2.60;89.22
77706;BME280;66874;45.274;5.880;2024-01-16T04:06:27;98450.94;;;2.57;89.30
77706;BME280;66874;45.274;5.880;2024-01-16T04:08:54;98444.94;;;2.55;89.42
77706;BME280;66874;45.274;5.880;2024-01-16T04:11:19;98440.63;;;2.57;89.12
77706;BME280;66874;45.274;5.880;2024-01-16T04:13:45;98448.38;;;2.57;89.34
77706;BME280;66874;45.274;5.880;2024-01-16T04:16:12;98434.59;;;2.60;89.27
77706;BME280;66874;45.274;5.880;2024-01-16T04:18:39;98430.31;;;2.63;89.10
77706;BME280;66874;45.274;5.880;2024-01-16T04:21:05;98433.75;;;2.68;89.17
77706;BME280;66874;45.274;5.880;2024-01-16T04:23:31;98426.03;;;2.72;88.80
77706;BME280;66874;45.274;5.880;2024-01-16T04:25:56;98425.19;;;2.74;89.08
77706;BME280;66874;45.274;5.880;2024-01-16T04:28:22;98420.88;;;2.76;89.31
77706;BME280;66874;45.274;5.880;2024-01-16T04:30:47;98421.75;;;2.78;89.06
77706;BME280;66874;45.274;5.880;2024-01-16T04:33:13;98417.44;;;2.79;88.99
77706;BME280;66874;45.274;5.880;2024-01-16T04:35:38;98419.16;;;2.80;88.96
77706;BME280;66874;45.274;5.880;2024-01-16T04:38:04;98417.44;;;2.82;89.07
77706;BME280;66874;45.274;5.880;2024-01-16T04:40:29;98414.84;;;2.83;88.89
77706;BME280;66874;45.274;5.880;2024-01-16T04:42:54;98408.81;;;2.84;88.89
77706;BME280;66874;45.274;5.880;2024-01-16T04:45:20;98389.88;;;2.84;89.01
77706;BME280;66874;45.274;5.880;2024-01-16T04:47:45;98388.16;;;2.84;88.99
77706;BME280;66874;45.274;5.880;2024-01-16T04:50:10;98391.59;;;2.83;88.92
77706;BME280;66874;45.274;5.880;2024-01-16T04:52:36;98397.66;;;2.81;88.94
77706;BME280;66874;45.274;5.880;2024-01-16T04:55:01;98401.09;;;2.81;88.96
77706;BME280;66874;45.274;5.880;2024-01-16T04:57:26;98397.63;;;2.79;89.11
77706;BME280;66874;45.274;5.880;2024-01-16T04:59:52;98397.66;;;2.81;89.35
77706;BME280;66874;45.274;5.880;2024-01-16T05:02:17;98395.91;;;2.83;89.31
77706;BME280;66874;45.274;5.880;2024-01-16T05:04:43;98395.91;;;2.84;89.15
77706;BME280;66874;45.274;5.880;2024-01-16T05:07:09;98388.16;;;2.84;89.17
77706;BME280;66874;45.274;5.880;2024-01-16T05:09:34;98385.59;;;2.86;89.07
77706;BME280;66874;45.274;5.880;2024-01-16T05:12:00;98386.44;;;2.88;89.34
77706;BME280;66874;45.274;5.880;2024-01-16T05:14:26;98396.75;;;2.88;89.18
77706;BME280;66874;45.274;5.880;2024-01-16T05:16:51;98391.63;;;2.89;89.36
77706;BME280;66874;45.274;5.880;2024-01-16T05:19:17;98394.19;;;2.91;89.24
77706;BME280;66874;45.274;5.880;2024-01-16T05:21:43;98397.66;;;2.93;89.18
77706;BME280;66874;45.274;5.880;2024-01-16T05:24:08;98396.78;;;2.92;89.36
77706;BME280;66874;45.274;5.880;2024-01-16T05:26:33;98392.47;;;2.94;89.09
77706;BME280;66874;45.274;5.880;2024-01-16T05:28:59;98389.88;;;2.94;88.98
77706;BME280;66874;45.274;5.880;2024-01-16T05:31:24;98384.72;;;2.94;89.06
77706;BME280;66874;45.274;5.880;2024-01-16T05:33:50;98389.88;;;2.94;89.08
77706;BME280;66874;45.274;5.880;2024-01-16T05:36:15;98389.03;;;2.94;89.06
77706;BME280;66874;45.274;5.880;2024-01-16T05:38:41;98381.28;;;2.92;89.00
77706;BME280;66874;45.274;5.880;2024-01-16T05:41:06;98385.56;;;2.92;89.42
77706;BME280;66874;45.274;5.880;2024-01-16T05:43:31;98390.75;;;2.90;88.96
77706;BME280;66874;45.274;5.880;2024-01-16T05:45:57;98389.03;;;2.89;89.16
77706;BME280;66874;45.274;5.880;2024-01-16T05:48:22;98382.16;;;2.90;89.35
77706;BME280;66874;45.274;5.880;2024-01-16T05:50:47;98391.63;;;2.89;89.15
77706;BME280;66874;45.274;5.880;2024-01-16T05:53:13;98387.31;;;2.88;89.29
77706;BME280;66874;45.274;5.880;2024-01-16T05:55:38;98383.00;;;2.86;89.22
77706;BME280;66874;45.274;5.880;2024-01-16T05:58:04;98384.72;;;2.85;89.22
77706;BME280;66874;45.274;5.880;2024-01-16T06:00:30;98380.41;;;2.86;89.28
77706;BME280;66874;45.274;5.880;2024-01-16T06:02:55;98384.72;;;2.85;89.25
77706;BME280;66874;45.274;5.880;2024-01-16T06:05:20;98389.03;;;2.86;89.31
77706;BME280;66874;45.274;5.880;2024-01-16T06:07:46;98393.34;;;2.86;89.20
77706;BME280;66874;45.274;5.880;2024-01-16T06:10:12;98395.06;;;2.85;89.26
77706;BME280;66874;45.274;5.880;2024-01-16T06:12:39;98385.56;;;2.84;89.28
77706;BME280;66874;45.274;5.880;2024-01-16T06:15:05;98395.91;;;2.83;89.26
77706;BME280;66874;45.274;5.880;2024-01-16T06:17:30;98390.75;;;2.81;89.38
77706;BME280;66874;45.274;5.880;2024-01-16T06:19:55;98394.19;;;2.82;89.23
77706;BME280;66874;45.274;5.880;2024-01-16T06:22:21;98392.47;;;2.79;89.34
77706;BME280;66874;45.274;5.880;2024-01-16T06:24:46;98383.88;;;2.77;89.52
77706;BME280;66874;45.274;5.880;2024-01-16T06:27:12;98385.56;;;2.75;89.24
77706;BME280;66874;45.274;5.880;2024-01-16T06:29:44;98379.56;;;2.75;89.29
77706;BME280;66874;45.274;5.880;2024-01-16T06:32:10;98378.69;;;2.83;89.21
77706;BME280;66874;45.274;5.880;2024-01-16T06:34:35;98378.69;;;2.88;89.23
77706;BME280;66874;45.274;5.880;2024-01-16T06:37:01;98378.72;;;2.92;89.00
77706;BME280;66874;45.274;5.880;2024-01-16T06:39:26;98380.44;;;2.93;88.92
77706;BME280;66874;45.274;5.880;2024-01-16T06:41:51;98381.28;;;2.94;88.91
77706;BME280;66874;45.274;5.880;2024-01-16T06:44:21;98379.56;;;2.93;88.77
77706;BME280;66874;45.274;5.880;2024-01-16T06:46:46;98376.09;;;2.91;88.75
77706;BME280;66874;45.274;5.880;2024-01-16T06:49:12;98376.97;;;2.87;88.81
77706;BME280;66874;45.274;5.880;2024-01-16T06:51:37;98370.94;;;2.82;88.74
77706;BME280;66874;45.274;5.880;2024-01-16T06:54:02;98381.28;;;2.79;89.03
77706;BME280;66874;45.274;5.880;2024-01-16T06:56:29;98379.53;;;2.79;88.96
77706;BME280;66874;45.274;5.880;2024-01-16T06:58:54;98381.28;;;2.79;89.06
77706;BME280;66874;45.274;5.880;2024-01-16T07:01:20;98388.16;;;2.75;88.88
77706;BME280;66874;45.274;5.880;2024-01-16T07:03:45;98378.69;;;2.66;89.17
77706;BME280;66874;45.274;5.880;2024-01-16T07:06:10;98385.56;;;2.64;88.98
77706;BME280;66874;45.274;5.880;2024-01-16T07:08:37;98389.88;;;2.67;89.00
77706;BME280;66874;45.274;5.880;2024-01-16T07:11:02;98391.59;;;2.69;88.89
77706;BME280;66874;45.274;5.880;2024-01-16T07:13:28;98388.16;;;2.74;89.15
77706;BME280;66874;45.274;5.880;2024-01-16T07:15:53;98395.88;;;2.72;89.07
77706;BME280;66874;45.274;5.880;2024-01-16T07:18:19;98399.34;;;2.73;88.95
77706;BME280;66874;45.274;5.880;2024-01-16T07:20:44;98394.16;;;2.73;89.00
77706;BME280;66874;45.274;5.880;2024-01-16T07:23:11;98397.63;;;2.72;88.99
77706;BME280;66874;45.274;5.880;2024-01-16T07:25:36;98396.75;;;2.71;89.00
77706;BME280;66874;45.274;5.880;2024-01-16T07:28:02;98403.63;;;2.69;88.80
77706;BME280;66874;45.274;5.880;2024-01-16T07:30:27;98397.63;;;2.65;88.98
77706;BME280;66874;45.274;5.880;2024-01-16T07:32:53;98395.03;;;2.67;88.69
77706;BME280;66874;45.274;5.880;2024-01-16T07:35:19;98397.63;;;2.67;88.98
77706;BME280;66874;45.274;5.880;2024-01-16T07:37:44;98392.44;;;2.67;88.98
77706;BME280;66874;45.274;5.880;2024-01-16T07:40:10;98391.59;;;2.66;88.78
77706;BME280;66874;45.274;5.880;2024-01-16T07:42:37;98389.03;;;2.69;88.83
77706;BME280;66874;45.274;5.880;2024-01-16T07:45:03;98386.44;;;2.71;88.77
77706;BME280;66874;45.274;5.880;2024-01-16T07:47:32;98388.16;;;2.74;88.76
77706;BME280;66874;45.274;5.880;2024-01-16T07:49:58;98395.03;;;2.75;88.88
77706;BME280;66874;45.274;5.880;2024-01-16T07:52:23;98399.34;;;2.76;88.78
77706;BME280;66874;45.274;5.880;2024-01-16T07:54:49;98394.19;;;2.79;88.97
77706;BME280;66874;45.274;5.880;2024-01-16T07:57:14;98397.63;;;2.79;88.84
77706;BME280;66874;45.274;5.880;2024-01-16T07:59:40;98404.53;;;2.82;88.91
77706;BME280;66874;45.274;5.880;2024-01-16T08:02:06;98403.66;;;2.84;88.94
77706;BME280;66874;45.274;5.880;2024-01-16T08:04:31;98412.28;;;2.86;88.94
77706;BME280;66874;45.274;5.880;2024-01-16T08:06:57;98412.28;;;2.91;88.85
77706;BME280;66874;45.274;5.880;2024-01-16T08:09:22;98419.19;;;2.93;88.71
77706;BME280;66874;45.274;5.880;2024-01-16T08:11:48;98410.56;;;2.96;88.56
77706;BME280;66874;45.274;5.880;2024-01-16T08:14:13;98414.00;;;2.98;88.62
77706;BME280;66874;45.274;5.880;2024-01-16T08:16:38;98422.63;;;2.99;88.78
77706;BME280;66874;45.274;5.880;2024-01-16T08:19:04;98424.31;;;3.00;88.63
77706;BME280;66874;45.274;5.880;2024-01-16T08:21:29;98423.50;;;3.04;88.63
77706;BME280;66874;45.274;5.880;2024-01-16T08:23:55;98435.53;;;3.06;88.56
77706;BME280;66874;45.274;5.880;2024-01-16T08:26:20;98439.00;;;3.08;88.52
77706;BME280;66874;45.274;5.880;2024-01-16T08:28:45;98441.59;;;3.08;88.49
77706;BME280;66874;45.274;5.880;2024-01-16T08:31:11;98446.75;;;3.13;88.36
77706;BME280;66874;45.274;5.880;2024-01-16T08:33:36;98444.19;;;3.16;88.22
77706;BME280;66874;45.274;5.880;2024-01-16T08:36:03;98447.63;;;3.21;88.49
77706;BME280;66874;45.274;5.880;2024-01-16T08:38:29;98445.03;;;3.24;88.30
77706;BME280;66874;45.274;5.880;2024-01-16T08:40:54;98445.88;;;3.25;88.13
77706;BME280;66874;45.274;5.880;2024-01-16T08:43:20;98445.03;;;3.24;88.33
77706;BME280;66874;45.274;5.880;2024-01-16T08:45:45;98449.34;;;3.25;88.24
77706;BME280;66874;45.274;5.880;2024-01-16T08:48:13;98442.47;;;3.27;88.14
77706;BME280;66874;45.274;5.880;2024-01-16T08:50:40;98441.56;;;3.33;88.34
77706;BME280;66874;45.274;5.880;2024-01-16T08:53:05;98438.16;;;3.38;87.96
77706;BME280;66874;45.274;5.880;2024-01-16T08:55:31;98423.47;;;3.40;88.08
77706;BME280;66874;45.274;5.880;2024-01-16T08:57:57;98427.81;;;3.46;87.92
77706;BME280;66874;45.274;5.880;2024-01-16T09:00:22;98432.94;;;3.55;87.83
77706;BME280;66874;45.274;5.880;2024-01-16T09:02:48;98427.78;;;3.61;87.87
77706;BME280;66874;45.274;5.880;2024-01-16T09:05:14;98431.22;;;3.63;87.71
77706;BME280;66874;45.274;5.880;2024-01-16T09:07:40;98432.09;;;3.65;87.57
77706;BME280;66874;45.274;5.880;2024-01-16T09:10:06;98424.31;;;3.65;87.60
77706;BME280;66874;45.274;5.880;2024-01-16T09:12:32;98427.75;;;3.71;87.41
77706;BME280;66874;45.274;5.880;2024-01-16T09:14:58;98426.00;;;3.83;87.52
77706;BME280;66874;45.274;5.880;2024-01-16T09:17:24;98425.97;;;4.00;87.34
77706;BME280;66874;45.274;5.880;2024-01-16T09:19:50;98427.59;;;4.21;86.96
77706;BME280;66874;45.274;5.880;2024-01-16T09:22:16;98422.34;;;4.39;86.86
77706;BME280;66874;45.274;5.880;2024-01-16T09:24:42;98436.91;;;4.60;86.33
77706;BME280;66874;45.274;5.880;2024-01-16T09:27:07;98434.28;;;4.70;86.06
77706;BME280;66874;45.274;5.880;2024-01-16T09:29:35;98427.34;;;4.72;85.80
77706;BME280;66874;45.274;5.880;2024-01-16T09:32:00;98425.66;;;4.66;85.85
77706;BME280;66874;45.274;5.880;2024-01-16T09:34:26;98431.75;;;4.56;85.87
77706;BME280;66874;45.274;5.880;2024-01-16T09:36:51;98434.41;;;4.47;86.08
77706;BME280;66874;45.274;5.880;2024-01-16T09:39:17;98436.09;;;4.48;86.33
77706;BME280;66874;45.274;5.880;2024-01-16T09:41:42;98441.28;;;4.49;86.37
77706;BME280;66874;45.274;5.880;2024-01-16T09:44:08;98446.47;;;4.45;86.36
77706;BME280;66874;45.274;5.880;2024-01-16T09:46:34;98443.91;;;4.41;86.21
77706;BME280;66874;45.274;5.880;2024-01-16T09:49:02;98453.41;;;4.39;86.39
77706;BME280;66874;45.274;5.880;2024-01-16T09:51:28;98452.50;;;4.45;86.29
77706;BME280;66874;45.274;5.880;2024-01-16T09:53:53;98452.53;;;4.47;86.16
77706;BME280;66874;45.274;5.880;2024-01-16T09:56:21;98453.38;;;4.49;86.28
77706;BME280;66874;45.274;5.880;2024-01-16T09:58:50;98451.63;;;4.52;86.23
77706;BME280;66874;45.274;5.880;2024-01-16T10:01:20;98446.44;;;4.55;86.02
77706;BME280;66874;45.274;5.880;2024-01-16T10:03:46;98451.59;;;4.61;85.97
77706;BME280;66874;45.274;5.880;2024-01-16T10:06:12;98454.13;;;4.68;85.87
77706;BME280;66874;45.274;5.880;2024-01-16T10:08:39;98449.78;;;4.73;85.81
77706;BME280;66874;45.274;5.880;2024-01-16T10:11:05;98444.59;;;4.74;85.58
77706;BME280;66874;45.274;5.880;2024-01-16T10:13:31;98443.69;;;4.84;85.59
77706;BME280;66874;45.274;5.880;2024-01-16T10:15:57;98441.88;;;4.94;85.59
77706;BME280;66874;45.274;5.880;2024-01-16T10:18:25;98441.84;;;5.02;85.36
77706;BME280;66874;45.274;5.880;2024-01-16T10:20:51;98441.78;;;5.06;85.24
77706;BME280;66874;45.274;5.880;2024-01-16T10:23:27;98442.66;;;5.07;85.15
77706;BME280;66874;45.274;5.880;2024-01-16T10:26:19;98444.34;;;5.11;85.22
77706;BME280;66874;45.274;5.880;2024-01-16T10:28:46;98431.38;;;5.14;84.94
77706;BME280;66874;45.274;5.880;2024-01-16T10:31:12;98432.28;;;5.11;85.21
77706;BME280;66874;45.274;5.880;2024-01-16T10:33:39;98440.91;;;5.12;84.98
77706;BME280;66874;45.274;5.880;2024-01-16T10:36:12;98433.97;;;5.11;84.97
77706;BME280;66874;45.274;5.880;2024-01-16T10:38:39;98440.06;;;5.11;84.91
77706;BME280;66874;45.274;5.880;2024-01-16T10:41:16;98430.53;;;5.10;85.01
77706;BME280;66874;45.274;5.880;2024-01-16T10:43:47;98439.19;;;5.09;85.18
77706;BME280;66874;45.274;5.880;2024-01-16T10:46:14;98434.03;;;5.08;84.96
77706;BME280;66874;45.274;5.880;2024-01-16T10:48:41;98425.38;;;5.09;85.19
77706;BME280;66874;45.274;5.880;2024-01-16T10:51:07;98419.31;;;5.08;85.00
77706;BME280;66874;45.274;5.880;2024-01-16T10:53:34;98427.94;;;5.10;84.96
77706;BME280;66874;45.274;5.880;2024-01-16T10:56:01;98424.50;;;5.10;84.94
77706;BME280;66874;45.274;5.880;2024-01-16T10:58:30;98421.03;;;5.09;84.92
77706;BME280;66874;45.274;5.880;2024-01-16T11:00:58;98411.53;;;5.07;85.08
77706;BME280;66874;45.274;5.880;2024-01-16T11:03:35;98415.91;;;5.05;85.18
77706;BME280;66874;45.274;5.880;2024-01-16T11:06:05;98406.34;;;5.07;85.29
77706;BME280;66874;45.274;5.880;2024-01-16T11:08:34;98405.50;;;5.08;85.18
77706;BME280;66874;45.274;5.880;2024-01-16T11:11:01;98408.94;;;5.11;85.13
77706;BME280;66874;45.274;5.880;2024-01-16T11:13:31;98412.38;;;5.12;85.26
77706;BME280;66874;45.274;5.880;2024-01-16T11:15:57;98412.38;;;5.15;85.01
77706;BME280;66874;45.274;5.880;2024-01-16T11:18:24;98408.88;;;5.18;85.01
77706;BME280;66874;45.274;5.880;2024-01-16T11:20:51;98401.94;;;5.21;85.18
77706;BME280;66874;45.274;5.880;2024-01-16T11:23:17;98395.81;;;5.28;85.07
77706;BME280;66874;45.274;5.880;2024-01-16T11:25:42;98399.25;;;5.32;84.97
77706;BME280;66874;45.274;5.880;2024-01-16T11:28:12;98388.00;;;5.34;84.55
77706;BME280;66874;45.274;5.880;2024-01-16T11:30:39;98384.53;;;5.35;84.82
77706;BME280;66874;45.274;5.880;2024-01-16T11:33:05;98389.72;;;5.35;84.75
77706;BME280;66874;45.274;5.880;2024-01-16T11:35:34;98388.88;;;5.32;84.67
77706;BME280;66874;45.274;5.880;2024-01-16T11:38:07;98382.84;;;5.31;84.62
77706;BME280;66874;45.274;5.880;2024-01-16T11:40:33;98386.25;;;5.33;84.52
77706;BME280;66874;45.274;5.880;2024-01-16T11:43:51;98390.63;;;5.31;84.54
77706;BME280;66874;45.274;5.880;2024-01-16T11:46:10;98382.84;;;5.30;84.36
77706;BME280;66874;45.274;5.880;2024-01-16T11:48:36;98394.97;;;5.26;84.63
77706;BME280;66874;45.274;5.880;2024-01-16T11:51:23;98378.59;;;5.23;84.61
77706;BME280;66874;45.274;5.880;2024-01-16T11:53:49;98381.16;;;5.24;84.51
77706;BME280;66874;45.274;5.880;2024-01-16T11:56:34;98372.53;;;5.24;84.58
77706;BME280;66874;45.274;5.880;2024-01-16T12:01:47;98366.44;;;5.28;84.50
77706;BME280;66874;45.274;5.880;2024-01-16T12:04:15;98362.97;;;5.29;84.39
77706;BME280;66874;45.274;5.880;2024-01-16T12:06:43;98364.66;;;5.34;84.25
77706;BME280;66874;45.274;5.880;2024-01-16T12:09:16;98362.88;;;5.39;84.16
77706;BME280;66874;45.274;5.880;2024-01-16T12:11:43;98360.19;;;5.47;83.95
77706;BME280;66874;45.274;5.880;2024-01-16T12:14:11;98362.75;;;5.52;84.08
77706;BME280;66874;45.274;5.880;2024-01-16T12:16:37;98355.78;;;5.55;83.97
77706;BME280;66874;45.274;5.880;2024-01-16T12:19:10;98356.66;;;5.57;83.86
77706;BME280;66874;45.274;5.880;2024-01-16T12:21:43;98341.03;;;5.62;83.94
77706;BME280;66874;45.274;5.880;2024-01-16T12:24:10;98343.56;;;5.67;83.95
77706;BME280;66874;45.274;5.880;2024-01-16T12:26:35;98335.72;;;5.73;83.69
77706;BME280;66874;45.274;5.880;2024-01-16T12:29:01;98340.84;;;5.76;83.70
77706;BME280;66874;45.274;5.880;2024-01-16T12:31:27;98342.50;;;5.84;83.43
77706;BME280;66874;45.274;5.880;2024-01-16T12:34:15;98342.38;;;5.97;83.45
77706;BME280;66874;45.274;5.880;2024-01-16T12:36:40;98344.00;;;6.05;82.87
77706;BME280;66874;45.274;5.880;2024-01-16T12:39:05;98336.97;;;6.15;82.84
77706;BME280;66874;45.274;5.880;2024-01-16T12:41:39;98335.97;;;6.22;82.57
77706;BME280;66874;45.274;5.880;2024-01-16T12:44:06;98325.47;;;6.31;82.31
77706;BME280;66874;45.274;5.880;2024-01-16T12:46:32;98323.25;;;6.64;82.29
77706;BME280;66874;45.274;5.880;2024-01-16T12:49:04;98317.13;;;7.67;81.42
77706;BME280;66874;45.274;5.880;2024-01-16T12:51:32;98306.09;;;8.77;79.06
77706;BME280;66874;45.274;5.880;2024-01-16T12:54:14;98299.75;;;8.89;77.93
77706;BME280;66874;45.274;5.880;2024-01-16T12:56:41;98300.22;;;8.69;77.92
77706;BME280;66874;45.274;5.880;2024-01-16T12:59:10;98294.44;;;8.92;78.14
77706;BME280;66874;45.274;5.880;2024-01-16T13:01:40;98284.78;;;8.95;77.80
77706;BME280;66874;45.274;5.880;2024-01-16T13:04:10;98276.16;;;8.93;77.58
77706;BME280;66874;45.274;5.880;2024-01-16T13:06:35;98266.25;;;9.06;77.69
77706;BME280;66874;45.274;5.880;2024-01-16T13:09:09;98257.72;;;9.32;77.05